Latest Weather Observations for Katanning RS

IDW60801

Issued at 8:03 am WST Saturday 25 April 2015 (issued every 30 minutes, with the page automatically refreshed every 10 minutes)

About weather observations | Map of weather stations | Latest weather observations for WA | Other Formats
Station Details ID: 010916 Name: KATANNING Lat: -33.69 Lon: 117.61 Height: 320.0 m
Data from the previous 72 hours. | See also: Recent months at Katanning RS
Date/Time
WST
Temp
°C
App
Temp
°C
Dew
Point
Rel
Hum
%
Delta-T
°C
Wind Press
QNH
hPa
Press
MSL
hPa
Rain
since 9 am
mm
Dir
 
Spd
km/h
Gust
km/h
Spd
kts
Gust
kts
25/08:00am 10.9 9.1 7.0 77 1.9 ENE 6 7 3 4 1029.9 1029.2 0.0
25/07:30am 10.3 8.2 6.8 79 1.7 ESE 7 11 4 6 1029.4 1028.7 0.0
25/07:00am 10.0 8.1 6.9 81 1.5 ESE 6 9 3 5 1028.9 1028.2 0.0
25/06:30am 9.8 8.3 6.9 82 1.4 ENE 4 7 2 4 1028.6 1028.0 0.0
25/06:00am 9.6 7.7 6.7 82 1.4 ENE 6 7 3 4 1028.4 1027.7 0.0
25/05:30am 9.5 7.6 6.6 82 1.4 E 6 6 3 3 1028.4 1027.7 0.0
25/05:00am 9.4 8.2 6.5 82 1.4 ESE 2 6 1 3 1028.2 1027.5 0.0
25/04:30am 9.5 7.4 6.6 82 1.4 ESE 7 11 4 6 1028.2 1027.5 0.0
25/04:00am 9.6 7.5 6.5 81 1.5 ESE 7 11 4 6 1028.2 1027.5 0.0
25/03:30am 9.7 7.2 6.6 81 1.5 ESE 9 11 5 6 1028.2 1027.5 0.0
25/03:00am 9.8 6.5 6.5 80 1.6 ESE 13 17 7 9 1028.3 1027.6 0.0
25/02:30am 9.7 7.8 6.8 82 1.4 E 6 9 3 5 1028.7 1028.1 0.0
25/02:00am 9.3 7.8 6.7 84 1.2 E 4 6 2 3 1029.1 1028.4 0.0
25/01:30am 8.9 7.3 6.5 85 1.1 ENE 4 6 2 3 1029.0 1028.3 0.0
25/01:00am 8.6 7.0 6.2 85 1.1 E 4 7 2 4 1028.9 1028.2 0.0
25/12:30am 8.7 7.8 6.0 83 1.2 CALM 0 6 0 3 1029.1 1028.4 0.0
25/12:00am 8.8 7.5 6.1 83 1.2 E 2 4 1 2 1029.3 1028.6 0.0
 
Date/Time
WST
Temp
°C
App
Temp
°C
Dew
Point
Rel
Hum
%
Delta-T
°C
Wind Press
QNH
hPa
Press
MSL
hPa
Rain
since 9 am
mm
Dir
 
Spd
km/h
Gust
km/h
Spd
kts
Gust
kts
24/11:30pm 8.9 6.8 6.0 82 1.4 ESE 6 7 3 4 1029.3 1028.6 0.0
24/11:00pm 9.5 7.5 6.2 80 1.5 ESE 6 7 3 4 1029.4 1028.7 0.0
24/10:30pm 10.1 8.1 6.4 78 1.8 ESE 6 9 3 5 1029.8 1029.1 0.0
24/10:00pm 10.5 7.6 6.5 76 1.9 ESE 11 17 6 9 1029.9 1029.2 0.0
24/09:30pm 10.9 8.4 6.5 74 2.1 ESE 9 15 5 8 1030.2 1029.5 0.0
24/09:00pm 10.9 8.3 6.3 73 2.2 ESE 9 13 5 7 1029.8 1029.1 0.0
24/08:30pm 11.4 7.3 6.3 71 2.4 ESE 17 24 9 13 1029.4 1028.7 0.0
24/08:00pm 11.5 7.4 6.2 70 2.5 ESE 17 26 9 14 1029.3 1028.6 0.0
24/07:30pm 12.1 6.6 5.9 66 3.0 SE 24 32 13 17 1029.2 1028.5 0.0
24/07:00pm 12.8 7.9 5.2 60 3.6 ESE 20 30 11 16 1029.2 1028.5 0.0
24/06:30pm 12.8 8.2 5.7 62 3.4 ESE 19 26 10 14 1028.9 1028.2 0.0
24/06:00pm 13.0 8.2 5.4 60 3.6 ESE 20 30 11 16 1028.9 1028.2 0.0
24/05:30pm 13.4 8.5 5.3 58 3.9 ESE 20 30 11 16 1028.6 1028.0 0.0
24/05:00pm 13.9 8.4 3.9 51 4.6 ESE 22 33 12 18 1028.7 1028.1 0.0
24/04:30pm 14.4 9.4 3.5 48 5.0 ESE 19 26 10 14 1028.6 1028.0 0.0
24/04:00pm 14.4 9.4 3.8 49 4.9 ESE 19 28 10 15 1028.9 1028.2 0.0
24/03:30pm 13.9 9.0 4.2 52 4.5 SE 19 26 10 14 1029.0 1028.3 0.0
24/03:00pm 14.1 9.1 4.7 53 4.4 SE 20 33 11 18 1029.2 1028.5 0.0
24/02:30pm 14.3 9.4 4.9 53 4.5 SE 20 30 11 16 1029.0 1028.3 0.0
24/02:00pm 14.5 9.7 4.8 52 4.6 SE 19 26 10 14 1029.1 1028.4 0.0
24/01:30pm 14.3 9.2 5.9 57 4.1 SE 22 30 12 16 1029.2 1028.5 0.0
24/01:00pm 14.4 9.0 4.7 52 4.6 ESE 22 30 12 16 1029.5 1028.8 0.0
24/12:30pm 14.3 8.9 4.3 51 4.7 ESE 22 33 12 18 1029.8 1029.1 0.0
24/12:00pm 14.4 9.3 4.1 50 4.8 ESE 20 32 11 17 1030.1 1029.4 0.0
24/11:30am 13.7 8.3 4.3 53 4.4 ESE 22 32 12 17 1030.7 1030.0 0.0
24/11:00am 13.6 7.7 3.7 51 4.5 ESE 24 35 13 19 1030.9 1030.2 0.0
24/10:30am 13.0 7.5 3.9 54 4.2 ESE 22 35 12 19 1031.0 1030.3 0.0
24/10:00am 12.3 6.9 4.5 59 3.6 ESE 22 33 12 18 1031.1 1030.4 0.0
24/09:30am 12.1 6.3 4.3 59 3.6 E 24 33 13 18 1031.3 1030.7 0.0
24/09:00am 11.7 6.8 4.9 63 3.1 ESE 20 28 11 15 1031.3 1030.7 0.0
24/08:30am 11.3 7.4 5.2 66 2.8 ESE 15 24 8 13 1031.3 1030.7 0.0
24/08:00am 10.8 5.9 5.1 68 2.6 ESE 20 30 11 16 1031.2 1030.6 0.0
24/07:30am 10.4 7.2 5.0 69 2.5 ESE 11 15 6 8 1030.8 1030.1 0.0
24/07:00am 10.1 6.1 4.9 70 2.4 SE 15 22 8 12 1030.2 1029.5 0.0
24/06:30am 10.0 6.0 4.8 70 2.4 SE 15 20 8 11 1029.8 1029.1 0.0
24/06:00am 10.2 5.2 4.6 68 2.5 SE 20 28 11 15 1029.8 1029.1 0.0
24/05:30am 10.7 6.4 3.0 59 3.4 ESE 15 22 8 12 1029.7 1029.0 0.0
24/05:00am 10.6 5.8 2.7 58 3.4 ESE 17 22 9 12 1029.7 1029.0 0.0
24/04:30am 10.6 5.8 2.4 57 3.6 ESE 17 28 9 15 1029.8 1029.1 0.0
24/04:00am 10.5 6.6 3.5 62 3.1 SE 13 20 7 11 1029.7 1029.0 0.0
24/03:30am 10.5 6.2 3.1 60 3.3 SE 15 22 8 12 1029.6 1028.9 0.0
24/03:00am 10.6 5.8 2.7 58 3.4 SE 17 22 9 12 1029.6 1028.9 0.0
24/02:30am 10.8 6.0 2.6 57 3.6 SE 17 24 9 13 1029.6 1028.9 0.0
24/02:00am 10.7 5.5 2.5 57 3.6 ESE 19 35 10 19 1029.6 1028.9 0.0
24/01:30am 10.6 5.2 2.2 56 3.6 ESE 20 30 11 16 1029.6 1028.9 0.0
24/01:00am 10.5 5.0 2.1 56 3.6 SE 20 30 11 16 1029.6 1028.9 0.0
24/12:30am 10.7 5.3 2.5 57 3.6 ESE 20 30 11 16 1029.6 1028.9 0.0
24/12:00am 10.6 5.4 2.4 57 3.5 ESE 19 32 10 17 1029.6 1028.9 0.0
 
Date/Time
WST
Temp
°C
App
Temp
°C
Dew
Point
Rel
Hum
%
Delta-T
°C
Wind Press
QNH
hPa
Press
MSL
hPa
Rain
since 9 am
mm
Dir
 
Spd
km/h
Gust
km/h
Spd
kts
Gust
kts
23/11:30pm 10.8 5.8 3.6 61 3.2 SE 19 28 10 15 1029.6 1028.9 0.0
23/11:00pm 10.9 6.0 3.9 62 3.1 SE 19 30 10 16 1029.6 1028.9 0.0
23/10:30pm 10.4 6.7 4.5 67 2.7 SE 13 17 7 9 1029.7 1029.0 0.0
23/10:00pm 9.4 5.6 3.8 68 2.5 SE 13 17 7 9 1029.8 1029.1 0.0
23/09:30pm 9.7 6.3 4.1 68 2.5 SE 11 15 6 8 1029.6 1028.9 0.0
23/09:00pm 10.7 5.7 4.6 66 2.8 SE 20 30 11 16 1029.5 1028.8 0.0
23/08:30pm 11.3 6.1 5.6 68 2.7 SE 22 30 12 16 1029.2 1028.5 0.0
23/08:00pm 11.8 5.9 5.9 67 2.8 SE 26 35 14 19 1029.0 1028.3 0.0
23/07:30pm 12.2 5.7 6.3 67 2.8 SE 30 41 16 22 1028.7 1028.1 0.0
23/07:00pm 12.6 7.4 7.3 70 2.6 SE 24 37 13 20 1028.3 1027.6 0.0
23/06:30pm 12.8 7.2 7.3 69 2.7 SE 26 39 14 21 1027.9 1027.2 0.0
23/06:00pm 13.2 8.6 8.3 72 2.5 SSE 22 33 12 18 1027.5 1026.8 0.0
23/05:30pm 13.8 8.9 8.4 70 2.7 SE 24 37 13 20 1027.1 1026.4 0.0
23/05:00pm 15.1 9.9 9.0 67 3.1 SE 26 37 14 20 1026.8 1026.1 0.0
23/04:30pm 15.9 10.3 8.6 62 3.8 SSE 28 37 15 20 1026.7 1026.0 0.0
23/04:00pm 17.5 12.2 8.4 55 4.7 SSE 26 32 14 17 1026.2 1025.5 0.0
23/03:30pm 17.2 11.2 8.6 57 4.5 SSE 30 41 16 22 1026.1 1025.4 0.0
23/03:00pm 17.7 13.6 7.7 52 5.1 S 19 26 10 14 1025.9 1025.2 0.0
23/02:30pm 18.0 13.5 8.6 54 4.9 S 22 35 12 19 1025.9 1025.2 0.0
23/02:00pm 18.6 13.9 9.1 54 5.0 S 24 35 13 19 1025.7 1024.9 0.0
23/01:30pm 17.7 12.9 8.8 56 4.7 SSE 24 33 13 18 1025.7 1024.9 0.0
23/01:00pm 17.3 13.7 10.4 64 3.7 S 20 30 11 16 1025.7 1024.9 0.0
23/12:30pm 17.8 14.2 9.7 59 4.3 SSE 19 28 10 15 1025.8 1025.1 0.0
23/12:00pm 16.8 12.7 10.0 64 3.6 S 22 30 12 16 1026.0 1025.3 0.0
23/11:30am 17.6 13.6 9.2 58 4.4 SE 20 28 11 15 1026.1 1025.4 0.0
23/11:00am 16.3 12.9 10.4 68 3.2 SSE 19 24 10 13 1026.3 1025.6 0.0
23/10:30am 16.1 13.1 10.6 70 3.0 SSE 17 26 9 14 1026.4 1025.7 0.0
23/10:00am 15.4 12.9 11.0 75 2.4 S 15 22 8 12 1026.3 1025.6 0.0
23/09:30am 14.7 11.7 12.0 84 1.5 SSE 19 26 10 14 1026.1 1025.4 0.0
23/09:00am 13.7 12.0 12.3 91 0.8 S 13 17 7 9 1026.1 1025.4 0.2
23/08:30am 13.0 12.2 11.7 92 0.7 SSE 7 13 4 7 1025.9 1025.2 0.2
23/08:00am 12.2 11.2 10.9 92 0.7 SSE 7 11 4 6 1025.6 1024.8 0.2
23/07:30am 11.4 10.1 10.1 92 0.7 SSE 7 11 4 6 1025.1 1024.4 0.2
23/07:00am 10.6 8.0 9.4 92 0.6 SSW 13 17 7 9 1024.8 1024.1 0.2
23/06:30am 10.4 8.5 9.2 92 0.6 SSW 9 13 5 7 1024.4 1023.7 0.0
23/06:00am 9.8 8.1 8.4 91 0.7 SSW 7 11 4 6 1024.0 1023.3 0.0
23/05:30am 9.8 8.1 8.4 91 0.7 S 7 9 4 5 1023.8 1023.1 0.0
23/05:00am 10.4 9.0 9.0 91 0.7 S 6 7 3 4 1023.6 1022.9 0.0
23/04:30am 10.9 9.1 9.5 91 0.7 S 9 11 5 6 1023.3 1022.6 0.0
23/04:00am 10.7 8.9 9.3 91 0.7 S 9 13 5 7 1023.2 1022.5 0.0
23/03:30am 11.2 9.5 9.8 91 0.7 S 9 13 5 7 1023.3 1022.6 0.0
23/03:00am 11.4 10.3 10.0 91 0.7 S 6 7 3 4 1023.2 1022.5 0.0
23/02:30am 11.1 11.0 9.5 90 0.8 CALM 0 2 0 1 1023.1 1022.4 0.0
23/02:00am 11.1 9.9 9.5 90 0.8 SSE 6 7 3 4 1023.2 1022.5 0.0
23/01:30am 11.2 10.0 9.6 90 0.8 SSE 6 7 3 4 1023.1 1022.4 0.0
23/01:00am 11.5 10.2 9.9 90 0.8 SSE 7 9 4 5 1022.9 1022.1 0.0
23/12:30am 11.5 10.2 9.8 89 0.9 SSE 7 7 4 4 1022.7 1021.9 0.0
23/12:00am 11.9 10.8 10.0 88 1.0 SE 6 7 3 4 1022.8 1022.0 0.0
 
Date/Time
WST
Temp
°C
App
Temp
°C
Dew
Point
Rel
Hum
%
Delta-T
°C
Wind Press
QNH
hPa
Press
MSL
hPa
Rain
since 9 am
mm
Dir
 
Spd
km/h
Gust
km/h
Spd
kts
Gust
kts
22/11:30pm 12.6 11.5 10.7 88 1.0 SE 7 11 4 6 1022.7 1021.9 0.0
22/11:00pm 12.9 11.5 10.8 87 1.1 ESE 9 13 5 7 1022.8 1022.0 0.0
22/10:30pm 13.0 11.9 10.7 86 1.2 SE 7 11 4 6 1022.9 1022.1 0.0
22/10:00pm 13.6 11.9 11.1 85 1.3 SE 11 17 6 9 1022.9 1022.1 0.0
22/09:30pm 14.0 11.9 11.2 83 1.5 SE 13 17 7 9 1022.7 1021.9 0.0
22/09:00pm 14.4 12.3 11.2 81 1.7 SE 13 20 7 11 1022.9 1022.1 0.0
22/08:30pm 15.0 12.5 11.2 78 2.1 ESE 15 22 8 12 1022.6 1021.8 0.0
22/08:00pm 15.7 13.3 11.3 75 2.4 ESE 15 24 8 13 1022.5 1021.7 0.0
22/07:30pm 16.6 13.8 11.3 71 2.9 SE 17 24 9 13 1022.3 1021.5 0.0
22/07:00pm 17.4 14.5 11.0 66 3.5 SE 17 22 9 12 1022.1 1021.4 0.0
22/06:30pm 18.5 14.8 9.6 56 4.8 SE 19 26 10 14 1021.5 1020.8 0.0
22/06:00pm 19.2 16.1 3.8 36 7.4 SSE 9 13 5 7 1021.1 1020.4 0.0
22/05:30pm 20.7 17.2 3.4 32 8.4 SSE 11 13 6 7 1020.8 1020.1 0.0
22/05:00pm 22.9 19.2 2.4 26 9.8 SE 11 13 6 7 1020.5 1019.8 0.0
22/04:30pm 23.6 20.1 1.3 23 10.6 SSE 9 13 5 7 1020.4 1019.7 0.0
22/04:00pm 24.2 21.6 1.2 22 10.9 SE 4 9 2 5 1020.3 1019.5 0.0
22/03:30pm 24.2 21.2 0.5 21 11.1 E 6 13 3 7 1020.3 1019.5 0.0
22/03:00pm 24.3 20.8 1.2 22 11.0 SE 9 15 5 8 1020.2 1019.4 0.0
22/02:30pm 24.1 21.0 1.1 22 10.9 S 7 15 4 8 1020.4 1019.7 0.0
22/02:00pm 24.6 21.7 1.5 22 11.0 SE 6 13 3 7 1020.3 1019.5 0.0
22/01:30pm 23.8 19.9 1.4 23 10.7 SE 11 22 6 12 1020.5 1019.8 0.0
22/01:00pm 23.5 19.2 1.2 23 10.5 ESE 13 24 7 13 1020.9 1020.2 0.0
22/12:30pm 23.3 19.5 1.6 24 10.3 ESE 11 19 6 10 1021.5 1020.8 0.0
22/12:00pm 23.3 19.3 2.7 26 10.0 ESE 13 20 7 11 1021.9 1021.2 0.0
22/11:30am 22.1 17.9 3.7 30 9.0 SE 15 22 8 12 1022.5 1021.7 0.0
22/11:00am 21.1 16.8 3.3 31 8.6 SE 15 20 8 11 1023.0 1022.2 0.0
22/10:30am 20.2 16.5 4.3 35 7.8 SE 13 19 7 10 1023.2 1022.5 0.0
22/10:00am 18.7 16.2 4.5 39 6.9 ESE 7 15 4 8 1023.4 1022.7 0.0
22/09:30am 17.0 13.7 4.7 44 5.9 ESE 11 17 6 9 1023.5 1022.8 0.0
22/09:00am 15.0 12.7 5.5 53 4.6 E 7 11 4 6 1023.5 1022.8 0.0
22/08:30am 13.9 12.1 5.5 57 4.0 E 4 9 2 5 1023.4 1022.7 0.0

Other Formats:

Comma delimited format used in spreadsheet applications
http://www.bom.gov.au/fwo/IDW60801/IDW60801.94641.axf

JavaScript Object Notation format (JSON) in row-major order
http://www.bom.gov.au/fwo/IDW60801/IDW60801.94641.json